createdAt,value
2019-05-19T00:01:20.880Z,3.63
2019-05-19T00:03:49.388Z,4.53
2019-05-19T00:06:17.829Z,4.33
2019-05-19T00:08:46.206Z,4.93
2019-05-19T00:11:14.615Z,4.57
2019-05-19T00:13:43.096Z,4.97
2019-05-19T00:16:11.560Z,4.60
2019-05-19T00:18:39.954Z,4.80
2019-05-19T00:21:08.397Z,5.63
2019-05-19T00:23:36.788Z,6.93
2019-05-19T00:26:05.234Z,5.87
2019-05-19T00:28:33.617Z,6.40
2019-05-19T00:31:02.184Z,6.20
2019-05-19T00:33:30.645Z,5.70
2019-05-19T00:35:59.251Z,6.30
2019-05-19T00:38:27.643Z,5.10
2019-05-19T00:40:56.112Z,5.10
2019-05-19T00:43:24.498Z,5.33
2019-05-19T00:45:52.930Z,5.53
2019-05-19T00:48:21.394Z,5.87
2019-05-19T00:50:49.846Z,5.47
2019-05-19T00:53:18.239Z,4.53
2019-05-19T00:55:46.705Z,3.57
2019-05-19T00:58:15.675Z,4.17
2019-05-19T01:00:44.156Z,3.70
2019-05-19T01:03:12.569Z,3.47
2019-05-19T01:05:40.982Z,2.93
2019-05-19T01:08:09.523Z,3.10
2019-05-19T01:10:37.922Z,3.87
2019-05-19T01:13:06.353Z,3.50
2019-05-19T01:15:34.734Z,3.80
2019-05-19T01:18:03.137Z,3.30
2019-05-19T01:20:31.971Z,3.20
2019-05-19T01:23:04.910Z,3.60
2019-05-19T01:25:33.308Z,2.90
2019-05-19T01:28:01.942Z,2.87
2019-05-19T01:30:30.316Z,3.10
2019-05-19T01:32:58.720Z,2.70
2019-05-19T01:35:27.118Z,3.13
2019-05-19T01:37:55.536Z,3.20
2019-05-19T01:40:23.950Z,3.27
2019-05-19T01:42:52.358Z,3.30
2019-05-19T01:45:21.001Z,3.43
2019-05-19T01:47:49.395Z,3.30
2019-05-19T01:50:18.936Z,3.87
2019-05-19T01:52:47.420Z,3.83
2019-05-19T01:55:16.053Z,4.03
2019-05-19T01:57:44.568Z,4.30
2019-05-19T02:00:13.803Z,3.73
2019-05-19T02:02:42.197Z,3.40
2019-05-19T02:05:11.030Z,3.90
2019-05-19T02:07:39.488Z,4.00
2019-05-19T02:10:09.169Z,3.40
2019-05-19T02:12:37.830Z,4.37
2019-05-19T02:15:07.282Z,4.50
2019-05-19T02:17:35.787Z,5.63
2019-05-19T02:20:07.242Z,5.03
2019-05-19T02:22:35.623Z,5.10
2019-05-19T02:25:05.596Z,5.97
2019-05-19T02:27:34.015Z,5.30
2019-05-19T02:30:02.916Z,5.53
2019-05-19T02:32:31.407Z,5.90
2019-05-19T02:34:59.829Z,5.43
2019-05-19T02:37:28.293Z,5.37
2019-05-19T02:39:56.709Z,4.90
2019-05-19T02:42:28.521Z,5.10
2019-05-19T02:44:59.606Z,4.77
2019-05-19T02:47:28.413Z,4.20
2019-05-19T02:49:58.248Z,4.60
2019-05-19T02:52:28.192Z,3.47
2019-05-19T02:54:58.057Z,3.80
2019-05-19T02:57:27.294Z,3.53
2019-05-19T02:59:56.357Z,3.80
2019-05-19T03:02:24.768Z,3.97
2019-05-19T03:04:53.483Z,4.40
2019-05-19T03:07:21.880Z,4.27
2019-05-19T03:09:50.334Z,4.77
2019-05-19T03:12:18.719Z,5.63
2019-05-19T03:14:47.182Z,4.40
2019-05-19T03:17:15.582Z,5.43
2019-05-19T03:19:43.993Z,4.77
2019-05-19T03:22:12.391Z,5.10
2019-05-19T03:24:40.921Z,5.23
2019-05-19T03:27:09.396Z,5.33
2019-05-19T03:29:39.410Z,5.90
2019-05-19T03:32:12.484Z,5.63
2019-05-19T03:34:39.564Z,5.73
2019-05-19T03:37:08.031Z,6.40
2019-05-19T03:39:36.430Z,6.80
2019-05-19T03:42:05.106Z,9.00
2019-05-19T03:44:33.482Z,5.87
2019-05-19T03:47:01.914Z,6.57
2019-05-19T03:49:30.307Z,6.50
2019-05-19T03:51:58.755Z,5.90
2019-05-19T03:54:27.220Z,5.47
2019-05-19T03:56:55.622Z,5.80
2019-05-19T03:59:24.052Z,10.10
2019-05-19T04:01:52.445Z,5.57
2019-05-19T04:04:20.964Z,5.53
2019-05-19T04:06:49.423Z,7.63
2019-05-19T04:09:17.807Z,5.40
2019-05-19T04:11:46.199Z,5.87
2019-05-19T04:14:14.711Z,8.70
2019-05-19T04:16:43.127Z,7.57
2019-05-19T04:19:11.587Z,8.77
2019-05-19T04:21:48.953Z,10.93
2019-05-19T04:24:10.144Z,10.97
2019-05-19T04:26:38.583Z,15.43
2019-05-19T04:29:07.034Z,15.03
2019-05-19T04:31:35.445Z,16.37
2019-05-19T04:34:04.064Z,18.87
2019-05-19T04:36:32.462Z,21.17
2019-05-19T04:39:00.892Z,21.47
2019-05-19T04:41:29.297Z,27.50
2019-05-19T04:43:57.770Z,25.10
2019-05-19T04:46:26.187Z,25.50
2019-05-19T04:48:54.599Z,26.03
2019-05-19T04:51:23.196Z,27.17
2019-05-19T04:53:51.558Z,25.40
2019-05-19T04:56:20.098Z,24.80
2019-05-19T04:58:48.451Z,23.90
2019-05-19T05:03:34.697Z,23.13
2019-05-19T05:06:03.104Z,26.63
2019-05-19T05:08:31.541Z,24.67
2019-05-19T05:11:00.042Z,24.60
2019-05-19T05:13:28.536Z,25.67
2019-05-19T05:15:56.914Z,25.80
2019-05-19T05:18:25.326Z,22.30
2019-05-19T05:20:53.747Z,24.80
2019-05-19T05:23:22.139Z,25.90
2019-05-19T05:25:50.573Z,25.87
2019-05-19T05:28:19.247Z,28.90
2019-05-19T05:30:47.661Z,28.43
2019-05-19T05:33:16.267Z,28.63
2019-05-19T05:35:44.680Z,34.33
2019-05-19T05:38:13.129Z,29.87
2019-05-19T05:40:41.542Z,28.33
2019-05-19T05:43:10.034Z,34.10
2019-05-19T05:45:38.442Z,29.80
2019-05-19T05:48:06.844Z,29.50
2019-05-19T05:50:35.263Z,29.67
2019-05-19T05:53:03.652Z,29.37
2019-05-19T05:55:32.067Z,29.93
2019-05-19T05:58:00.585Z,30.07
2019-05-19T06:00:29.008Z,29.47
2019-05-19T06:02:57.401Z,29.93
2019-05-19T06:05:25.822Z,32.07
2019-05-19T06:07:54.229Z,31.97
2019-05-19T06:10:22.648Z,31.77
2019-05-19T06:12:51.076Z,32.20
2019-05-19T06:15:19.476Z,34.63
2019-05-19T06:17:47.885Z,33.43
2019-05-19T06:20:16.293Z,32.13
2019-05-19T06:22:55.821Z,32.27
2019-05-19T06:25:16.437Z,31.57
2019-05-19T06:27:44.850Z,31.50
2019-05-19T06:30:13.888Z,31.80
2019-05-19T06:32:50.244Z,33.80
2019-05-19T06:35:19.494Z,32.73
2019-05-19T06:37:47.947Z,31.60
2019-05-19T06:40:17.192Z,32.70
2019-05-19T06:42:45.622Z,35.17
2019-05-19T06:45:14.689Z,37.70
2019-05-19T06:47:43.447Z,36.73
2019-05-19T06:50:12.583Z,37.63
2019-05-19T06:52:41.154Z,37.03
2019-05-19T06:55:10.985Z,37.87
2019-05-19T06:57:39.426Z,37.07
2019-05-19T07:00:08.385Z,35.60
2019-05-19T07:02:36.875Z,32.40
2019-05-19T07:05:08.944Z,31.00
2019-05-19T07:07:37.390Z,30.67
2019-05-19T07:10:09.106Z,30.93
2019-05-19T07:12:37.662Z,29.07
2019-05-19T07:15:07.591Z,28.97
2019-05-19T07:17:36.123Z,27.13
2019-05-19T07:20:05.593Z,25.93
2019-05-19T07:22:37.489Z,26.67
2019-05-19T07:25:06.176Z,25.23
2019-05-19T07:27:34.638Z,23.67
2019-05-19T07:30:04.381Z,23.73
2019-05-19T07:32:32.908Z,23.47
2019-05-19T07:35:01.360Z,23.60
2019-05-19T07:37:29.807Z,23.30
2019-05-19T07:39:58.331Z,23.93
2019-05-19T07:42:26.809Z,22.07
2019-05-19T07:44:55.349Z,21.75
2019-05-19T07:47:23.743Z,21.12
2019-05-19T07:49:52.232Z,18.87
2019-05-19T07:52:20.698Z,18.87
2019-05-19T07:54:49.184Z,18.07
2019-05-19T07:57:17.591Z,17.67
2019-05-19T07:59:45.988Z,16.52
2019-05-19T08:02:14.379Z,16.43
2019-05-19T08:04:42.800Z,16.03
2019-05-19T08:07:11.203Z,16.07
2019-05-19T08:09:39.628Z,15.97
2019-05-19T08:12:08.118Z,15.03
2019-05-19T08:14:36.710Z,14.23
2019-05-19T08:17:05.266Z,13.53
2019-05-19T08:19:33.672Z,11.47
2019-05-19T08:22:02.211Z,9.95
2019-05-19T08:24:30.605Z,10.60
2019-05-19T08:26:59.023Z,9.43
2019-05-19T08:29:27.462Z,9.05
2019-05-19T08:31:55.943Z,10.28
2019-05-19T08:34:24.598Z,12.55
2019-05-19T08:36:53.012Z,8.55
2019-05-19T08:39:21.469Z,8.15
2019-05-19T08:41:49.880Z,10.00
2019-05-19T08:44:18.282Z,7.92
2019-05-19T08:46:46.713Z,7.58
2019-05-19T08:49:15.169Z,6.78
2019-05-19T08:51:43.670Z,7.30
2019-05-19T08:54:14.974Z,7.33
2019-05-19T08:56:42.304Z,6.15
2019-05-19T08:59:10.674Z,5.42
2019-05-19T09:01:39.198Z,5.87
2019-05-19T09:04:07.720Z,6.50
2019-05-19T09:06:36.183Z,5.67
2019-05-19T09:09:06.069Z,5.25
2019-05-19T09:11:34.570Z,5.15
2019-05-19T09:14:03.040Z,5.58
2019-05-19T09:16:31.510Z,5.50
2019-05-19T09:18:59.913Z,5.12
2019-05-19T09:21:28.593Z,5.53
2019-05-19T09:23:57.148Z,4.33
2019-05-19T09:26:25.585Z,5.65
2019-05-19T09:28:53.988Z,4.55
2019-05-19T09:31:22.392Z,5.40
2019-05-19T09:33:52.778Z,5.20
2019-05-19T09:36:21.350Z,4.58
2019-05-19T09:38:49.816Z,4.40
2019-05-19T09:41:18.245Z,8.00
2019-05-19T09:43:46.760Z,6.33
2019-05-19T09:46:15.262Z,7.50
2019-05-19T09:48:43.763Z,5.00
2019-05-19T09:51:12.216Z,4.62
2019-05-19T09:53:40.613Z,5.00
2019-05-19T09:56:09.006Z,5.40
2019-05-19T09:58:37.429Z,3.42
2019-05-19T10:01:05.823Z,3.50
2019-05-19T10:03:34.339Z,3.20
2019-05-19T10:06:02.923Z,3.60
2019-05-19T10:08:32.333Z,2.77
2019-05-19T10:11:12.921Z,3.12
2019-05-19T10:13:41.469Z,3.30
2019-05-19T10:16:09.972Z,3.47
2019-05-19T10:18:38.415Z,4.40
2019-05-19T10:21:06.897Z,3.80
2019-05-19T10:23:35.343Z,4.30
2019-05-19T10:26:03.804Z,4.92
2019-05-19T10:28:32.192Z,4.28
2019-05-19T10:31:00.620Z,4.35
2019-05-19T10:33:29.074Z,4.60
2019-05-19T10:35:57.553Z,4.62
2019-05-19T10:38:25.933Z,4.47
2019-05-19T10:40:54.350Z,5.00
2019-05-19T10:43:22.734Z,5.03
2019-05-19T10:45:52.816Z,4.42
2019-05-19T10:48:21.234Z,4.28
2019-05-19T10:50:49.690Z,4.50
2019-05-19T10:53:18.091Z,4.25
2019-05-19T10:55:46.495Z,4.80
2019-05-19T10:58:14.898Z,3.85
2019-05-19T11:00:43.310Z,3.50
2019-05-19T11:03:11.720Z,4.72
2019-05-19T11:05:40.144Z,4.15
2019-05-19T11:08:08.592Z,4.20
2019-05-19T11:10:37.093Z,4.35
2019-05-19T11:13:05.573Z,4.28
2019-05-19T11:15:33.996Z,4.67
2019-05-19T11:18:02.402Z,4.45
2019-05-19T11:20:30.855Z,4.80
2019-05-19T11:22:59.251Z,5.47
2019-05-19T11:25:33.789Z,4.20
2019-05-19T11:27:57.812Z,4.42
2019-05-19T11:30:26.385Z,5.60
2019-05-19T11:32:54.778Z,5.70
2019-05-19T11:35:23.304Z,5.42
2019-05-19T11:37:51.723Z,5.45
2019-05-19T11:40:20.394Z,5.12
2019-05-19T11:42:48.826Z,5.67
2019-05-19T11:45:17.472Z,4.00
2019-05-19T11:47:45.888Z,5.67
2019-05-19T11:50:14.430Z,6.10
2019-05-19T11:52:42.861Z,5.53
2019-05-19T11:55:11.604Z,6.08
2019-05-19T11:57:40.030Z,4.95
2019-05-19T12:00:09.360Z,6.40
2019-05-19T12:02:37.836Z,5.95
2019-05-19T12:05:06.359Z,5.92
2019-05-19T12:07:34.819Z,5.80
2019-05-19T12:10:03.408Z,5.22
2019-05-19T12:12:31.858Z,4.80
2019-05-19T12:15:00.268Z,5.45
2019-05-19T12:17:28.653Z,6.50
2019-05-19T12:19:57.053Z,5.25
2019-05-19T12:22:25.458Z,6.33
2019-05-19T12:24:53.854Z,6.50
2019-05-19T12:27:22.257Z,6.90
2019-05-19T12:29:50.702Z,6.37
2019-05-19T12:32:19.182Z,6.83
2019-05-19T12:34:47.637Z,6.37
2019-05-19T12:37:16.118Z,6.78
2019-05-19T12:39:44.516Z,5.50
2019-05-19T12:42:12.978Z,6.15
2019-05-19T12:44:41.382Z,5.92
2019-05-19T12:47:09.844Z,5.17
2019-05-19T12:49:38.309Z,5.05
2019-05-19T12:52:06.886Z,5.00
2019-05-19T12:54:35.381Z,6.20
2019-05-19T12:57:03.802Z,5.20
2019-05-19T12:59:32.278Z,5.15
2019-05-19T13:02:00.997Z,5.37
2019-05-19T13:04:29.377Z,5.87
2019-05-19T13:06:57.813Z,5.17
2019-05-19T13:09:26.230Z,6.47
2019-05-19T13:11:54.796Z,5.40
2019-05-19T13:14:23.195Z,5.60
2019-05-19T13:16:51.628Z,5.67
2019-05-19T13:19:20.125Z,4.35
2019-05-19T13:21:48.532Z,4.00
2019-05-19T13:24:16.935Z,4.03
2019-05-19T13:26:55.972Z,4.00
2019-05-19T13:29:15.480Z,4.45
2019-05-19T13:31:43.867Z,4.12
2019-05-19T13:34:12.326Z,4.60
2019-05-19T13:36:40.742Z,3.58
2019-05-19T13:39:09.241Z,3.95
2019-05-19T13:41:37.680Z,3.27
2019-05-19T13:44:06.212Z,3.80
2019-05-19T13:46:34.629Z,3.90
2019-05-19T13:49:03.175Z,3.60
2019-05-19T13:51:31.658Z,3.70
2019-05-19T13:54:00.100Z,3.00
2019-05-19T13:56:28.513Z,3.70
2019-05-19T13:58:56.896Z,3.50
2019-05-19T14:01:28.573Z,3.87
2019-05-19T14:03:55.625Z,3.75
2019-05-19T14:06:24.124Z,3.40
2019-05-19T14:08:52.498Z,3.62
2019-05-19T14:11:20.915Z,3.60
2019-05-19T14:13:49.389Z,3.25
2019-05-19T14:16:17.779Z,3.50
2019-05-19T14:18:46.262Z,3.33
2019-05-19T14:21:14.732Z,3.33
2019-05-19T14:23:43.150Z,2.90
2019-05-19T14:26:11.731Z,3.22
2019-05-19T14:28:40.188Z,3.42
2019-05-19T14:31:08.789Z,3.15
2019-05-19T14:33:37.318Z,3.65
2019-05-19T14:36:05.729Z,3.02
2019-05-19T14:38:34.347Z,3.20
2019-05-19T14:41:02.777Z,2.80
2019-05-19T14:43:32.892Z,3.70
2019-05-19T14:46:01.400Z,3.60
2019-05-19T14:48:29.895Z,3.05
2019-05-19T14:50:58.288Z,2.72
2019-05-19T14:53:26.878Z,3.00
2019-05-19T14:55:55.435Z,3.12
2019-05-19T14:58:23.912Z,3.00
2019-05-19T15:00:52.453Z,3.58
2019-05-19T15:03:20.948Z,2.90
2019-05-19T15:05:49.338Z,3.17
2019-05-19T15:08:17.869Z,2.70
2019-05-19T15:10:46.374Z,2.83
2019-05-19T15:13:15.053Z,2.60
2019-05-19T15:15:43.501Z,2.90
2019-05-19T15:18:11.908Z,2.75
2019-05-19T15:20:40.337Z,2.90
2019-05-19T15:23:08.777Z,3.20
2019-05-19T15:25:37.259Z,3.52
2019-05-19T15:28:05.773Z,3.00
2019-05-19T15:30:34.285Z,2.60
2019-05-19T15:33:02.759Z,2.80
2019-05-19T15:35:31.273Z,3.08
2019-05-19T15:37:59.843Z,3.20
2019-05-19T15:40:28.269Z,2.85
2019-05-19T15:42:56.678Z,3.10
2019-05-19T15:45:25.263Z,2.80
2019-05-19T15:47:53.717Z,2.98
2019-05-19T15:50:22.246Z,2.65
2019-05-19T15:52:50.651Z,2.80
2019-05-19T15:55:19.044Z,3.12
2019-05-19T15:57:47.479Z,2.80
2019-05-19T16:00:16.159Z,2.98
2019-05-19T16:02:44.636Z,2.70
2019-05-19T16:05:13.355Z,2.52
2019-05-19T16:07:41.858Z,3.02
2019-05-19T16:10:11.509Z,2.98
2019-05-19T16:12:39.921Z,2.67
2019-05-19T16:15:09.554Z,2.58
2019-05-19T16:17:37.917Z,4.28
2019-05-19T16:20:07.487Z,3.12
2019-05-19T16:22:36.160Z,2.40
2019-05-19T16:25:07.099Z,10.65
2019-05-19T16:27:36.013Z,12.88
2019-05-19T16:30:09.698Z,8.40
2019-05-19T16:32:38.245Z,2.80
2019-05-19T16:35:07.485Z,11.68
2019-05-19T16:37:35.977Z,3.15
2019-05-19T16:40:05.169Z,2.30
2019-05-19T16:42:33.662Z,2.40
2019-05-19T16:45:02.070Z,3.10
2019-05-19T16:47:30.509Z,3.20
2019-05-19T16:49:58.860Z,2.55
2019-05-19T16:52:27.299Z,3.60
2019-05-19T16:55:13.313Z,2.52
2019-05-19T16:57:41.751Z,2.98
2019-05-19T17:00:10.506Z,3.37
2019-05-19T17:02:39.043Z,3.55
2019-05-19T17:05:07.839Z,2.55
2019-05-19T17:07:36.451Z,2.75
2019-05-19T17:10:07.518Z,3.17
2019-05-19T17:12:35.957Z,2.58
2019-05-19T17:15:05.614Z,2.75
2019-05-19T17:17:34.111Z,2.50
2019-05-19T17:20:02.620Z,2.50
2019-05-19T17:22:31.149Z,2.30
2019-05-19T17:25:00.424Z,2.77
2019-05-19T17:27:29.503Z,2.20
2019-05-19T17:29:57.964Z,2.20
2019-05-19T17:32:26.311Z,2.37
2019-05-19T17:34:54.941Z,3.10
2019-05-19T17:37:23.418Z,2.40
2019-05-19T17:39:52.165Z,2.35
2019-05-19T17:42:20.584Z,2.90
2019-05-19T17:44:49.005Z,2.10
2019-05-19T17:47:17.431Z,2.83
2019-05-19T17:49:46.034Z,2.72
2019-05-19T17:52:14.408Z,2.27
2019-05-19T17:54:43.477Z,2.77
2019-05-19T17:57:12.108Z,5.25
2019-05-19T17:59:43.582Z,3.20
2019-05-19T18:02:12.000Z,6.83
2019-05-19T18:04:40.430Z,4.00
2019-05-19T18:07:08.883Z,4.03
2019-05-19T18:09:37.317Z,2.80
2019-05-19T18:12:05.778Z,2.17
2019-05-19T18:14:34.328Z,2.35
2019-05-19T18:17:03.036Z,2.35
2019-05-19T18:19:31.902Z,2.20
2019-05-19T18:22:00.471Z,2.85
2019-05-19T18:24:29.312Z,3.25
2019-05-19T18:26:57.845Z,2.12
2019-05-19T18:29:31.258Z,2.72
2019-05-19T18:31:56.550Z,2.80
2019-05-19T18:34:24.984Z,3.10
2019-05-19T18:36:53.755Z,5.37
2019-05-19T18:39:22.217Z,3.65
2019-05-19T18:41:50.982Z,2.77
2019-05-19T18:44:19.440Z,3.92
2019-05-19T18:46:47.921Z,2.25
2019-05-19T18:49:16.436Z,3.15
2019-05-19T18:51:44.842Z,2.80
2019-05-19T18:54:13.314Z,2.95
2019-05-19T18:56:41.707Z,2.58
2019-05-19T18:59:10.265Z,2.70
2019-05-19T19:01:38.892Z,2.77
2019-05-19T19:04:07.486Z,2.60
2019-05-19T19:06:35.989Z,2.62
2019-05-19T19:09:05.902Z,3.50
2019-05-19T19:11:34.388Z,4.87
2019-05-19T19:14:02.857Z,4.60
2019-05-19T19:16:31.311Z,3.22
2019-05-19T19:18:59.734Z,3.10
2019-05-19T19:21:28.219Z,3.77
2019-05-19T19:23:56.643Z,3.15
2019-05-19T19:26:25.138Z,4.72
2019-05-19T19:28:53.585Z,4.25
2019-05-19T19:31:22.078Z,3.75
2019-05-19T19:33:50.490Z,3.75
2019-05-19T19:36:18.930Z,3.75
2019-05-19T19:38:47.493Z,4.00
2019-05-19T19:41:15.918Z,3.40
2019-05-19T19:43:44.364Z,3.02
2019-05-19T19:46:12.826Z,3.37
2019-05-19T19:48:41.256Z,2.83
2019-05-19T19:51:09.862Z,2.90
2019-05-19T19:53:38.261Z,2.45
2019-05-19T19:56:06.803Z,2.72
2019-05-19T19:58:35.226Z,2.57
2019-05-19T20:03:39.841Z,3.98
2019-05-19T20:06:04.885Z,2.65
2019-05-19T20:08:33.254Z,3.33
2019-05-19T20:11:01.820Z,4.37
2019-05-19T20:13:30.298Z,4.08
2019-05-19T20:15:58.695Z,3.17
2019-05-19T20:18:27.380Z,3.45
2019-05-19T20:20:55.788Z,2.87
2019-05-19T20:23:24.400Z,3.70
2019-05-19T20:25:53.016Z,2.90
2019-05-19T20:28:21.559Z,3.17
2019-05-19T20:30:50.034Z,3.30
2019-05-19T20:33:18.650Z,3.43
2019-05-19T20:35:47.167Z,3.00
2019-05-19T20:38:15.581Z,3.40
2019-05-19T20:40:43.981Z,2.80
2019-05-19T20:43:12.479Z,3.00
2019-05-19T20:45:40.899Z,3.30
2019-05-19T20:48:09.290Z,3.07
2019-05-19T20:50:37.697Z,3.20
2019-05-19T20:53:06.110Z,3.27
2019-05-19T20:55:34.587Z,3.33
2019-05-19T20:58:03.005Z,3.17
2019-05-19T21:00:31.565Z,3.40
2019-05-19T21:02:59.970Z,3.77
2019-05-19T21:05:28.598Z,4.23
2019-05-19T21:07:57.208Z,3.50
2019-05-19T21:10:25.601Z,3.70
2019-05-19T21:12:57.205Z,3.60
2019-05-19T21:15:24.288Z,3.83
2019-05-19T21:17:52.768Z,3.87
2019-05-19T21:20:21.306Z,5.03
2019-05-19T21:22:49.717Z,5.30
2019-05-19T21:25:18.138Z,4.40
2019-05-19T21:27:46.612Z,4.00
2019-05-19T21:30:15.052Z,3.90
2019-05-19T21:32:43.475Z,4.07
2019-05-19T21:35:11.871Z,3.93
2019-05-19T21:37:40.495Z,4.53
2019-05-19T21:40:09.105Z,4.20
2019-05-19T21:42:37.688Z,4.33
2019-05-19T21:45:07.649Z,4.10
2019-05-19T21:47:36.094Z,4.30
2019-05-19T21:50:06.408Z,4.37
2019-05-19T21:52:34.864Z,4.43
2019-05-19T21:55:04.100Z,4.50
2019-05-19T21:57:32.523Z,4.70
2019-05-19T22:00:01.068Z,4.33
2019-05-19T22:02:29.670Z,5.47
2019-05-19T22:04:58.064Z,4.57
2019-05-19T22:07:28.120Z,4.47
2019-05-19T22:09:56.572Z,4.67
2019-05-19T22:12:25.025Z,4.63
2019-05-19T22:14:53.476Z,5.07
2019-05-19T22:17:21.889Z,5.30
2019-05-19T22:19:50.368Z,5.33
2019-05-19T22:22:18.847Z,5.37
2019-05-19T22:24:47.192Z,5.23
2019-05-19T22:27:15.611Z,5.80
2019-05-19T22:29:44.095Z,5.47
2019-05-19T22:32:12.561Z,5.23
2019-05-19T22:34:40.968Z,6.00
2019-05-19T22:37:09.418Z,5.43
2019-05-19T22:39:37.842Z,4.97
2019-05-19T22:42:06.241Z,4.97
2019-05-19T22:44:34.646Z,5.83
2019-05-19T22:47:03.143Z,5.73
2019-05-19T22:49:31.551Z,5.20
2019-05-19T22:52:00.004Z,4.93
2019-05-19T22:54:28.610Z,5.63
2019-05-19T22:56:56.992Z,5.13
2019-05-19T22:59:25.593Z,5.50
2019-05-19T23:01:53.987Z,5.57
2019-05-19T23:04:22.454Z,5.37
2019-05-19T23:06:50.860Z,5.80
2019-05-19T23:09:19.355Z,6.43
2019-05-19T23:11:47.749Z,6.03
2019-05-19T23:14:16.156Z,5.87
2019-05-19T23:16:44.535Z,6.17
2019-05-19T23:19:12.966Z,6.37
2019-05-19T23:21:41.359Z,6.33
2019-05-19T23:24:09.887Z,6.50
2019-05-19T23:26:38.287Z,5.60
2019-05-19T23:29:06.847Z,5.77
2019-05-19T23:31:35.322Z,6.13
2019-05-19T23:34:03.816Z,6.60
2019-05-19T23:36:32.221Z,6.63
2019-05-19T23:39:00.639Z,6.70
2019-05-19T23:41:29.237Z,6.63
2019-05-19T23:43:57.623Z,6.30
2019-05-19T23:46:26.038Z,6.07
2019-05-19T23:48:54.437Z,6.80
2019-05-19T23:51:22.836Z,6.73
2019-05-19T23:53:51.233Z,7.27
2019-05-19T23:56:19.845Z,6.17
2019-05-19T23:58:48.262Z,6.20
